createdAt,value
2023-04-21T00:00:10.974Z,11.84
2023-04-21T00:02:41.364Z,11.47
2023-04-21T00:05:12.659Z,11.39
2023-04-21T00:07:41.647Z,11.50
2023-04-21T00:10:11.032Z,12.06
2023-04-21T00:12:39.559Z,11.36
2023-04-21T00:15:10.900Z,10.55
2023-04-21T00:17:39.639Z,10.12
2023-04-21T00:20:10.651Z,11.04
2023-04-21T00:22:39.301Z,11.24
2023-04-21T00:25:08.740Z,11.38
2023-04-21T00:27:37.309Z,10.91
2023-04-21T00:30:07.007Z,10.50
2023-04-21T00:32:36.982Z,10.89
2023-04-21T00:35:05.961Z,10.95
2023-04-21T00:37:34.573Z,11.06
2023-04-21T00:40:04.648Z,11.14
2023-04-21T00:42:33.166Z,11.78
2023-04-21T00:45:01.688Z,11.81
2023-04-21T00:47:31.159Z,10.87
2023-04-21T00:50:01.622Z,11.45
2023-04-21T00:52:30.771Z,10.96
2023-04-21T00:55:00.565Z,10.90
2023-04-21T00:57:29.800Z,10.98
2023-04-21T00:59:58.354Z,10.93
2023-04-21T01:02:28.523Z,11.51
2023-04-21T01:04:57.856Z,11.98
2023-04-21T01:07:28.015Z,11.61
2023-04-21T01:09:56.518Z,11.91
2023-04-21T01:12:25.003Z,10.90
2023-04-21T01:14:53.590Z,9.66
2023-04-21T01:17:22.805Z,10.88
2023-04-21T01:19:54.566Z,10.64
2023-04-21T01:22:24.496Z,10.85
2023-04-21T01:24:53.026Z,11.56
2023-04-21T01:27:22.530Z,11.70
2023-04-21T01:29:52.968Z,11.81
2023-04-21T01:32:23.272Z,10.88
2023-04-21T01:34:53.067Z,9.83
2023-04-21T01:37:25.502Z,11.19
2023-04-21T01:39:57.315Z,10.91
2023-04-21T01:42:28.596Z,11.28
2023-04-21T01:44:58.314Z,10.26
2023-04-21T01:47:27.188Z,11.39
2023-04-21T01:49:55.690Z,11.60
2023-04-21T01:52:25.615Z,11.65
2023-04-21T01:54:54.132Z,10.85
2023-04-21T01:57:22.669Z,10.44
2023-04-21T01:59:51.179Z,11.03
2023-04-21T02:02:19.834Z,10.72
2023-04-21T02:04:48.405Z,11.11
2023-04-21T02:07:16.927Z,11.04
2023-04-21T02:09:46.794Z,11.37
2023-04-21T02:12:15.343Z,11.14
2023-04-21T02:14:43.919Z,11.11
2023-04-21T02:17:12.456Z,11.17
2023-04-21T02:19:41.118Z,11.09
2023-04-21T02:22:12.799Z,11.45
2023-04-21T02:24:41.739Z,11.60
2023-04-21T02:27:11.656Z,11.28
2023-04-21T02:29:40.253Z,10.77
2023-04-21T02:32:22.219Z,10.68
2023-04-21T02:34:54.377Z,10.80
2023-04-21T02:37:23.038Z,10.72
2023-04-21T02:39:51.551Z,10.47
2023-04-21T02:42:21.476Z,11.49
2023-04-21T02:44:50.120Z,11.23
2023-04-21T02:47:18.659Z,11.34
2023-04-21T02:49:47.208Z,11.38
2023-04-21T02:52:16.061Z,11.31
2023-04-21T02:54:44.601Z,11.54
2023-04-21T02:57:13.294Z,11.37
2023-04-21T02:59:43.148Z,11.51
2023-04-21T03:02:11.726Z,11.61
2023-04-21T03:04:40.367Z,10.72
2023-04-21T03:07:14.058Z,11.30
2023-04-21T03:09:42.683Z,11.57
2023-04-21T03:12:11.183Z,11.95
2023-04-21T03:14:39.689Z,11.52
2023-04-21T03:17:09.633Z,11.64
2023-04-21T03:19:38.124Z,11.85
2023-04-21T03:22:06.795Z,11.99
2023-04-21T03:24:35.307Z,11.81
2023-04-21T03:27:03.862Z,11.86
2023-04-21T03:29:32.370Z,11.86
2023-04-21T03:32:01.243Z,12.11
2023-04-21T03:34:31.209Z,11.74
2023-04-21T03:36:59.723Z,11.80
2023-04-21T03:39:28.255Z,11.88
2023-04-21T03:41:56.786Z,12.24
2023-04-21T03:44:28.713Z,12.24
2023-04-21T03:46:57.647Z,12.20
2023-04-21T03:49:26.537Z,11.41
2023-04-21T03:51:56.433Z,11.88
2023-04-21T03:54:24.905Z,11.84
2023-04-21T03:56:53.620Z,12.00
2023-04-21T03:59:22.181Z,12.01
2023-04-21T04:01:50.886Z,12.11
2023-04-21T04:04:19.757Z,12.27
2023-04-21T04:06:48.432Z,12.00
2023-04-21T04:09:18.449Z,12.17
2023-04-21T04:11:47.240Z,12.36
2023-04-21T04:14:15.789Z,12.31
2023-04-21T04:16:44.506Z,12.36
2023-04-21T04:19:13.494Z,12.40
2023-04-21T04:21:42.012Z,12.41
2023-04-21T04:24:11.565Z,12.26
2023-04-21T04:26:41.556Z,12.09
2023-04-21T04:29:11.287Z,11.68
2023-04-21T04:31:39.912Z,11.84
2023-04-21T04:34:09.696Z,11.84
2023-04-21T04:36:38.235Z,12.03
2023-04-21T04:39:08.962Z,12.09
2023-04-21T04:41:38.200Z,12.22
2023-04-21T04:44:08.956Z,12.35
2023-04-21T04:46:37.631Z,12.70
2023-04-21T04:49:06.557Z,12.35
2023-04-21T04:51:35.084Z,12.46
2023-04-21T04:54:03.634Z,12.31
2023-04-21T04:56:32.784Z,11.92
2023-04-21T04:59:01.306Z,11.96
2023-04-21T05:01:31.438Z,12.14
2023-04-21T05:04:00.346Z,12.42
2023-04-21T05:06:29.258Z,12.56
2023-04-21T05:08:57.775Z,12.68
2023-04-21T05:11:26.317Z,12.64
2023-04-21T05:13:54.905Z,12.63
2023-04-21T05:16:23.522Z,12.64
2023-04-21T05:18:54.360Z,12.60
2023-04-21T05:21:28.332Z,12.70
2023-04-21T05:23:57.497Z,13.11
2023-04-21T05:26:27.551Z,13.38
2023-04-21T05:28:57.100Z,13.59
2023-04-21T05:31:26.487Z,14.26
2023-04-21T05:33:56.523Z,14.42
2023-04-21T05:36:25.899Z,15.22
2023-04-21T05:38:55.143Z,15.46
2023-04-21T05:41:24.001Z,14.64
2023-04-21T05:43:52.528Z,14.22
2023-04-21T05:46:21.065Z,14.73
2023-04-21T05:48:49.641Z,14.88
2023-04-21T05:51:19.553Z,14.56
2023-04-21T05:53:48.102Z,14.76
2023-04-21T05:56:16.606Z,14.27
2023-04-21T05:58:45.187Z,13.73
2023-04-21T06:01:15.479Z,13.54
2023-04-21T06:03:44.232Z,13.16
2023-04-21T06:06:13.310Z,13.13
2023-04-21T06:08:42.960Z,13.04
2023-04-21T06:11:11.225Z,13.21
2023-04-21T06:13:40.459Z,13.43
2023-04-21T06:16:10.653Z,13.37
2023-04-21T06:18:38.942Z,13.31
2023-04-21T06:21:07.413Z,13.23
2023-04-21T06:23:35.682Z,13.31
2023-04-21T06:26:07.649Z,13.11
2023-04-21T06:28:39.227Z,13.44
2023-04-21T06:31:08.858Z,13.50
2023-04-21T06:33:37.850Z,13.76
2023-04-21T06:36:07.319Z,13.82
2023-04-21T06:38:35.582Z,13.98
2023-04-21T06:41:06.559Z,13.96
2023-04-21T06:43:35.152Z,14.07
2023-04-21T06:46:03.673Z,14.15
2023-04-21T06:48:32.318Z,14.06
2023-04-21T06:51:02.678Z,13.95
2023-04-21T06:53:31.310Z,13.87
2023-04-21T06:55:59.899Z,13.90
2023-04-21T06:58:29.787Z,14.16
2023-04-21T07:00:58.341Z,14.34
2023-04-21T07:03:26.896Z,14.58
2023-04-21T07:05:55.455Z,14.94
2023-04-21T07:08:24.131Z,14.96
2023-04-21T07:10:52.627Z,14.59
2023-04-21T07:13:21.204Z,14.76
2023-04-21T07:15:51.106Z,13.99
2023-04-21T07:18:19.636Z,14.15
2023-04-21T07:20:48.193Z,14.23
2023-04-21T07:23:16.664Z,14.53
2023-04-21T07:25:45.394Z,14.84
2023-04-21T07:28:15.178Z,15.00
2023-04-21T07:30:43.910Z,15.03
2023-04-21T07:33:13.806Z,15.09
2023-04-21T07:35:42.374Z,15.14
2023-04-21T07:38:10.964Z,15.23
2023-04-21T07:40:39.180Z,15.36
2023-04-21T07:43:07.713Z,15.65
2023-04-21T07:45:36.263Z,15.45
2023-04-21T07:48:06.207Z,15.53
2023-04-21T07:50:36.942Z,14.98
2023-04-21T07:53:05.608Z,14.65
2023-04-21T07:55:34.645Z,14.91
2023-04-21T07:58:03.161Z,15.16
2023-04-21T08:00:31.687Z,14.69
2023-04-21T08:03:00.339Z,14.47
2023-04-21T08:05:32.354Z,14.86
2023-04-21T08:08:04.089Z,14.81
2023-04-21T08:10:32.610Z,14.98
2023-04-21T08:13:01.314Z,13.43
2023-04-21T08:15:29.886Z,13.06
2023-04-21T08:17:58.449Z,13.43
2023-04-21T08:20:26.722Z,12.87
2023-04-21T08:22:55.064Z,13.17
2023-04-21T08:25:24.886Z,13.63
2023-04-21T08:27:53.208Z,13.70
2023-04-21T08:30:21.909Z,13.91
2023-04-21T08:32:50.459Z,13.42
2023-04-21T08:35:18.878Z,14.06
2023-04-21T08:37:47.269Z,14.29
2023-04-21T08:40:15.623Z,14.79
2023-04-21T08:42:45.904Z,14.06
2023-04-21T08:45:14.417Z,14.57
2023-04-21T08:47:43.342Z,14.76
2023-04-21T08:50:15.858Z,15.19
2023-04-21T08:52:44.145Z,16.35
2023-04-21T08:55:14.036Z,15.72
2023-04-21T08:57:44.021Z,15.47
2023-04-21T09:00:13.523Z,14.71
2023-04-21T09:03:00.769Z,14.40
2023-04-21T09:05:31.322Z,14.95
2023-04-21T09:08:10.731Z,14.87
2023-04-21T09:10:46.471Z,14.20
2023-04-21T09:13:16.868Z,14.33
2023-04-21T09:15:47.003Z,14.06
2023-04-21T09:18:16.972Z,14.20
2023-04-21T09:20:46.822Z,14.39
2023-04-21T09:23:15.752Z,14.15
2023-04-21T09:25:46.392Z,14.21
2023-04-21T09:28:16.657Z,13.80
2023-04-21T09:30:45.230Z,13.84
2023-04-21T09:33:29.042Z,13.55
2023-04-21T09:36:04.010Z,13.78
2023-04-21T09:38:33.711Z,13.68
2023-04-21T09:41:02.214Z,13.94
2023-04-21T09:43:32.104Z,14.22
2023-04-21T09:46:02.827Z,13.49
2023-04-21T09:48:35.144Z,14.07
2023-04-21T09:53:41.779Z,13.70
2023-04-21T09:56:13.838Z,13.41
2023-04-21T09:58:48.005Z,13.80
2023-04-21T10:01:17.727Z,14.09
2023-04-21T10:03:48.959Z,13.59
2023-04-21T10:06:17.904Z,14.09
2023-04-21T10:08:46.972Z,14.32
2023-04-21T10:11:15.891Z,13.84
2023-04-21T10:13:46.902Z,13.57
2023-04-21T10:16:19.836Z,13.85
2023-04-21T10:18:48.417Z,13.88
2023-04-21T10:21:22.051Z,14.12
2023-04-21T10:23:53.012Z,14.73
2023-04-21T10:26:22.667Z,14.28
2023-04-21T10:28:57.786Z,14.12
2023-04-21T10:31:31.964Z,15.08
2023-04-21T10:34:20.877Z,14.85
2023-04-21T10:37:13.325Z,14.92
2023-04-21T10:39:58.306Z,15.26
2023-04-21T10:42:29.769Z,16.07
2023-04-21T10:45:20.043Z,16.18
2023-04-21T10:47:51.433Z,15.51
2023-04-21T10:50:22.836Z,15.16
2023-04-21T10:52:56.851Z,15.35
2023-04-21T10:55:29.081Z,14.87
2023-04-21T10:57:59.125Z,14.89
2023-04-21T11:00:29.422Z,15.14
2023-04-21T11:03:00.109Z,15.35
2023-04-21T11:05:38.672Z,15.22
2023-04-21T11:08:14.059Z,15.79
2023-04-21T11:11:00.273Z,16.03
2023-04-21T11:13:33.599Z,16.08
2023-04-21T11:16:06.877Z,15.72
2023-04-21T11:18:45.896Z,14.96
2023-04-21T11:21:20.234Z,14.77
2023-04-21T11:23:53.874Z,14.44
2023-04-21T11:26:33.215Z,15.20
2023-04-21T11:29:02.983Z,15.50
2023-04-21T11:31:33.103Z,15.75
2023-04-21T11:34:02.039Z,14.99
2023-04-21T11:36:30.793Z,15.21
2023-04-21T11:38:59.520Z,15.20
2023-04-21T11:41:28.073Z,14.75
2023-04-21T11:43:56.604Z,15.11
2023-04-21T11:46:27.045Z,15.50
2023-04-21T11:49:04.916Z,15.47
2023-04-21T11:51:37.818Z,15.56
2023-04-21T11:54:08.621Z,15.70
2023-04-21T11:56:38.509Z,15.59
2023-04-21T11:59:12.686Z,15.87
2023-04-21T12:01:48.332Z,16.22
2023-04-21T12:04:20.010Z,16.33
2023-04-21T12:06:56.241Z,16.34
2023-04-21T12:09:24.480Z,16.34
2023-04-21T12:11:54.383Z,15.85
2023-04-21T12:14:24.296Z,16.19
2023-04-21T12:16:55.625Z,15.82
2023-04-21T12:19:26.758Z,15.93
2023-04-21T12:21:56.460Z,15.77
2023-04-21T12:24:24.950Z,16.55
2023-04-21T12:26:53.246Z,16.42
2023-04-21T12:29:21.691Z,16.53
2023-04-21T12:31:50.309Z,16.71
2023-04-21T12:34:18.882Z,17.32
2023-04-21T12:36:48.513Z,16.69
2023-04-21T12:39:17.411Z,17.00
2023-04-21T12:41:47.449Z,16.70
2023-04-21T12:44:15.940Z,16.86
2023-04-21T12:46:46.005Z,16.88
2023-04-21T12:49:15.727Z,16.64
2023-04-21T12:51:44.325Z,16.55
2023-04-21T12:54:14.484Z,16.20
2023-04-21T12:56:43.688Z,16.61
2023-04-21T12:59:12.750Z,16.46
2023-04-21T13:01:42.506Z,16.47
2023-04-21T13:04:11.255Z,16.78
2023-04-21T13:06:40.679Z,16.66
2023-04-21T13:09:08.925Z,16.54
2023-04-21T13:11:38.583Z,17.11
2023-04-21T13:14:06.841Z,16.83
2023-04-21T13:16:35.082Z,17.23
2023-04-21T13:19:04.185Z,17.35
2023-04-21T13:21:32.764Z,17.17
2023-04-21T13:24:02.212Z,17.00
2023-04-21T13:26:33.592Z,16.91
2023-04-21T13:29:03.734Z,17.31
2023-04-21T13:31:32.456Z,17.16
2023-04-21T13:34:01.841Z,17.33
2023-04-21T13:36:30.473Z,18.07
2023-04-21T13:39:00.768Z,17.34
2023-04-21T13:41:29.032Z,17.58
2023-04-21T13:43:57.393Z,17.83
2023-04-21T13:46:27.134Z,17.73
2023-04-21T13:48:55.525Z,17.57
2023-04-21T13:51:23.798Z,17.43
2023-04-21T13:53:52.099Z,17.25
2023-04-21T13:56:20.331Z,17.49
2023-04-21T13:58:48.733Z,17.53
2023-04-21T14:01:19.164Z,17.95
2023-04-21T14:03:50.844Z,17.26
2023-04-21T14:06:19.343Z,17.27
2023-04-21T14:08:47.584Z,17.40
2023-04-21T14:11:15.931Z,17.43
2023-04-21T14:13:56.134Z,17.03
2023-04-21T14:16:32.470Z,16.96
2023-04-21T14:19:02.164Z,17.45
2023-04-21T14:21:31.033Z,18.18
2023-04-21T14:23:59.447Z,18.30
2023-04-21T14:26:27.795Z,18.10
2023-04-21T14:28:56.457Z,18.09
2023-04-21T14:31:24.745Z,17.92
2023-04-21T14:33:53.023Z,18.16
2023-04-21T14:36:22.870Z,17.75
2023-04-21T14:38:51.654Z,17.74
2023-04-21T14:41:19.989Z,17.69
2023-04-21T14:43:49.873Z,17.93
2023-04-21T14:46:18.264Z,18.05
2023-04-21T14:48:46.811Z,18.14
2023-04-21T14:51:15.093Z,17.96
2023-04-21T14:53:44.712Z,18.14
2023-04-21T14:56:12.976Z,18.15
2023-04-21T14:58:41.264Z,18.37
2023-04-21T15:01:10.602Z,18.36
2023-04-21T15:03:39.047Z,18.11
2023-04-21T15:06:07.950Z,18.09
2023-04-21T15:08:36.422Z,18.12
2023-04-21T15:11:06.472Z,18.04
2023-04-21T15:13:35.221Z,18.10
2023-04-21T15:16:03.452Z,18.11
2023-04-21T15:18:31.698Z,17.92
2023-04-21T15:20:59.971Z,17.78
2023-04-21T15:23:29.190Z,17.95
2023-04-21T15:25:58.048Z,17.85
2023-04-21T15:28:27.735Z,17.65
2023-04-21T15:30:56.101Z,17.63
2023-04-21T15:33:24.367Z,17.89
2023-04-21T15:35:52.586Z,18.15
2023-04-21T15:38:21.222Z,17.99
2023-04-21T15:41:00.164Z,17.83
2023-04-21T15:43:31.055Z,18.09
2023-04-21T15:45:59.493Z,18.41
2023-04-21T15:48:27.870Z,18.71
2023-04-21T15:50:57.248Z,18.79
2023-04-21T15:53:26.009Z,18.64
2023-04-21T15:55:54.230Z,18.74
2023-04-21T15:58:22.501Z,18.35
2023-04-21T16:00:52.402Z,18.13
2023-04-21T16:03:21.626Z,17.99
2023-04-21T16:05:50.464Z,18.06
2023-04-21T16:08:19.059Z,18.26
2023-04-21T16:10:47.669Z,18.37
2023-04-21T16:13:16.082Z,18.43
2023-04-21T16:15:44.449Z,18.23
2023-04-21T16:18:14.171Z,18.18
2023-04-21T16:20:43.929Z,18.10
2023-04-21T16:23:12.423Z,18.19
2023-04-21T16:25:40.880Z,18.25
2023-04-21T16:28:09.852Z,18.16
2023-04-21T16:30:38.618Z,18.05
2023-04-21T16:33:06.892Z,18.00
2023-04-21T16:35:36.563Z,17.81
2023-04-21T16:38:04.997Z,17.78
2023-04-21T16:40:34.197Z,17.84
2023-04-21T16:43:02.497Z,17.88
2023-04-21T16:45:31.003Z,17.82
2023-04-21T16:47:59.345Z,17.72
2023-04-21T16:50:27.832Z,17.57
2023-04-21T16:52:57.473Z,17.76
2023-04-21T16:55:25.944Z,17.94
2023-04-21T16:57:54.246Z,17.80
2023-04-21T17:00:22.534Z,17.81
2023-04-21T17:02:50.898Z,17.95
2023-04-21T17:05:19.447Z,18.17
2023-04-21T17:07:48.335Z,18.13
2023-04-21T17:10:18.106Z,17.59
2023-04-21T17:12:46.414Z,17.36
2023-04-21T17:15:15.394Z,16.72
2023-04-21T17:17:47.159Z,16.72
2023-04-21T17:20:16.118Z,16.90
2023-04-21T17:22:47.238Z,17.48
2023-04-21T17:25:16.878Z,16.95
2023-04-21T17:27:46.358Z,17.16
2023-04-21T17:30:15.295Z,17.58
2023-04-21T17:32:43.757Z,17.88
2023-04-21T17:35:12.127Z,17.52
2023-04-21T17:37:40.975Z,17.92
2023-04-21T17:40:11.766Z,18.00
2023-04-21T17:42:41.753Z,18.01
2023-04-21T17:45:10.802Z,18.05
2023-04-21T17:47:39.185Z,18.02
2023-04-21T17:50:09.885Z,17.74
2023-04-21T17:52:38.142Z,17.68
2023-04-21T17:55:07.394Z,17.76
2023-04-21T17:57:36.242Z,17.84
2023-04-21T18:00:08.688Z,17.84
2023-04-21T18:02:37.165Z,17.79
2023-04-21T18:05:06.715Z,17.80
2023-04-21T18:07:35.036Z,17.73
2023-04-21T18:10:03.385Z,17.71
2023-04-21T18:12:31.709Z,17.70
2023-04-21T18:14:59.930Z,17.72
2023-04-21T18:17:29.514Z,17.69
2023-04-21T18:19:57.762Z,17.70
2023-04-21T18:22:26.005Z,17.65
2023-04-21T18:24:54.283Z,17.61
2023-04-21T18:27:22.514Z,17.56
2023-04-21T18:29:51.328Z,17.53
2023-04-21T18:32:19.682Z,17.53
2023-04-21T18:34:49.401Z,17.49
2023-04-21T18:37:18.471Z,17.40
2023-04-21T18:39:46.679Z,17.45
2023-04-21T18:42:14.929Z,17.37
2023-04-21T18:44:43.229Z,17.40
2023-04-21T18:47:12.043Z,17.40
2023-04-21T18:49:41.026Z,17.40
2023-04-21T18:52:10.855Z,17.42
2023-04-21T18:54:39.261Z,17.37
2023-04-21T18:57:08.660Z,17.33
2023-04-21T18:59:36.977Z,17.30
2023-04-21T19:02:07.460Z,17.40
2023-04-21T19:04:36.263Z,17.49
2023-04-21T19:07:08.315Z,17.49
2023-04-21T19:09:37.966Z,17.51
2023-04-21T19:12:06.560Z,17.61
2023-04-21T19:14:45.655Z,17.58
2023-04-21T19:17:15.605Z,17.55
2023-04-21T19:19:44.201Z,17.53
2023-04-21T19:22:12.533Z,17.56
2023-04-21T19:24:42.110Z,17.58
2023-04-21T19:27:10.522Z,17.61
2023-04-21T19:29:38.789Z,17.60
2023-04-21T19:32:07.395Z,17.63
2023-04-21T19:34:36.232Z,17.67
2023-04-21T19:37:04.630Z,16.82
2023-04-21T19:39:32.896Z,15.38
2023-04-21T19:42:02.622Z,14.45
2023-04-21T19:44:31.271Z,13.59
2023-04-21T19:46:59.893Z,13.46
2023-04-21T19:49:28.389Z,13.22
2023-04-21T19:51:57.220Z,13.40
2023-04-21T19:54:25.720Z,13.66
2023-04-21T19:56:53.982Z,13.00
2023-04-21T19:59:23.637Z,13.60
2023-04-21T20:01:51.946Z,14.18
2023-04-21T20:04:20.383Z,13.90
2023-04-21T20:06:49.002Z,14.47
2023-04-21T20:09:17.531Z,13.84
2023-04-21T20:11:45.879Z,15.00
2023-04-21T20:14:14.096Z,13.71
2023-04-21T20:16:46.229Z,14.90
2023-04-21T20:19:17.169Z,14.17
2023-04-21T20:21:45.588Z,15.22
2023-04-21T20:24:13.782Z,15.57
2023-04-21T20:26:42.027Z,16.01
2023-04-21T20:29:10.582Z,16.38
2023-04-21T20:31:38.851Z,16.26
2023-04-21T20:34:08.729Z,15.87
2023-04-21T20:36:37.200Z,15.58
2023-04-21T20:39:06.524Z,15.27
2023-04-21T20:41:34.813Z,14.80
2023-04-21T20:44:03.356Z,15.29
2023-04-21T20:46:31.677Z,15.09
2023-04-21T20:48:59.920Z,14.38
2023-04-21T20:51:29.493Z,14.61
2023-04-21T20:53:57.694Z,15.38
2023-04-21T20:56:26.332Z,15.13
2023-04-21T20:58:54.543Z,15.67
2023-04-21T21:01:23.683Z,15.92
2023-04-21T21:03:52.453Z,16.21
2023-04-21T21:06:21.652Z,16.33
2023-04-21T21:08:51.398Z,16.35
2023-04-21T21:11:19.909Z,16.35
2023-04-21T21:13:48.107Z,16.32
2023-04-21T21:16:16.413Z,16.29
2023-04-21T21:18:44.753Z,16.17
2023-04-21T21:21:12.955Z,16.17
2023-04-21T21:23:42.373Z,16.27
2023-04-21T21:26:12.515Z,16.27
2023-04-21T21:28:40.832Z,16.24
2023-04-21T21:31:09.085Z,16.18
2023-04-21T21:33:37.328Z,16.25
2023-04-21T21:36:06.468Z,16.16
2023-04-21T21:38:34.739Z,15.92
2023-04-21T21:41:02.968Z,15.86
2023-04-21T21:43:33.304Z,15.99
2023-04-21T21:46:01.566Z,16.11
2023-04-21T21:48:29.990Z,16.08
2023-04-21T21:50:58.259Z,16.04
2023-04-21T21:53:26.671Z,16.08
2023-04-21T21:55:55.077Z,15.95
2023-04-21T21:58:23.365Z,16.04
2023-04-21T22:00:52.963Z,16.06
2023-04-21T22:03:22.002Z,16.05
2023-04-21T22:05:50.431Z,16.02
2023-04-21T22:08:18.680Z,16.00
2023-04-21T22:10:47.114Z,15.99
2023-04-21T22:13:15.364Z,16.01
2023-04-21T22:15:43.612Z,15.82
2023-04-21T22:18:13.231Z,15.96
2023-04-21T22:20:41.513Z,15.98
2023-04-21T22:23:09.734Z,16.08
2023-04-21T22:25:37.937Z,15.92
2023-04-21T22:28:06.187Z,15.76
2023-04-21T22:30:34.449Z,15.82
2023-04-21T22:33:02.891Z,15.81
2023-04-21T22:35:32.663Z,15.86
2023-04-21T22:38:00.872Z,15.89
2023-04-21T22:40:29.357Z,15.84
2023-04-21T22:42:57.655Z,15.78
2023-04-21T22:45:26.601Z,15.81
2023-04-21T22:47:55.889Z,15.77
2023-04-21T22:50:24.241Z,15.69
2023-04-21T22:52:53.895Z,15.67
2023-04-21T22:55:22.220Z,15.68
2023-04-21T22:57:50.667Z,15.55
2023-04-21T23:00:19.133Z,15.46
2023-04-21T23:02:47.534Z,15.54
2023-04-21T23:05:15.998Z,15.46
2023-04-21T23:07:44.249Z,15.65
2023-04-21T23:10:13.867Z,15.73
2023-04-21T23:12:42.342Z,15.52
2023-04-21T23:15:11.505Z,15.68
2023-04-21T23:17:39.820Z,15.78
2023-04-21T23:20:10.406Z,15.65
2023-04-21T23:22:38.703Z,15.57
2023-04-21T23:25:08.757Z,15.68
2023-04-21T23:27:38.382Z,15.38
2023-04-21T23:30:08.319Z,15.32
2023-04-21T23:32:36.704Z,15.33
2023-04-21T23:35:05.404Z,15.36
2023-04-21T23:37:33.637Z,15.28
2023-04-21T23:40:02.020Z,15.49
2023-04-21T23:42:30.396Z,15.37
2023-04-21T23:44:59.949Z,15.35
2023-04-21T23:47:28.207Z,15.41
2023-04-21T23:49:56.431Z,15.39
2023-04-21T23:52:24.703Z,15.22
2023-04-21T23:54:52.931Z,15.15
2023-04-21T23:57:21.308Z,15.13
2023-04-21T23:59:49.658Z,15.21
